createdAt,value
2023-01-23T00:01:03.982Z,8.77
2023-01-23T00:03:31.048Z,8.02
2023-01-23T00:06:02.996Z,7.75
2023-01-23T00:08:29.809Z,8.63
2023-01-23T00:10:57.399Z,7.82
2023-01-23T00:13:24.494Z,8.07
2023-01-23T00:15:51.478Z,8.85
2023-01-23T00:18:18.591Z,7.82
2023-01-23T00:20:45.407Z,8.95
2023-01-23T00:23:12.653Z,8.15
2023-01-23T00:25:39.627Z,9.90
2023-01-23T00:28:06.511Z,8.02
2023-01-23T00:30:34.140Z,7.70
2023-01-23T00:33:01.070Z,8.10
2023-01-23T00:35:27.967Z,8.10
2023-01-23T00:37:55.062Z,8.93
2023-01-23T00:40:22.338Z,8.75
2023-01-23T00:42:49.322Z,8.15
2023-01-23T00:45:16.249Z,8.35
2023-01-23T00:47:43.137Z,8.18
2023-01-23T00:50:10.770Z,7.57
2023-01-23T00:52:37.652Z,7.75
2023-01-23T00:55:05.243Z,8.25
2023-01-23T00:57:32.146Z,8.90
2023-01-23T00:59:58.987Z,9.43
2023-01-23T01:02:25.902Z,8.05
2023-01-23T01:04:52.700Z,8.70
2023-01-23T01:07:19.549Z,7.72
2023-01-23T01:09:46.561Z,8.30
2023-01-23T01:12:14.174Z,6.95
2023-01-23T01:14:41.062Z,8.38
2023-01-23T01:17:08.103Z,8.07
2023-01-23T01:19:34.905Z,8.63
2023-01-23T01:22:01.865Z,8.52
2023-01-23T01:24:28.696Z,8.65
2023-01-23T01:26:55.579Z,8.45
2023-01-23T01:29:23.202Z,8.05
2023-01-23T01:31:50.189Z,8.60
2023-01-23T01:34:17.069Z,7.95
2023-01-23T01:36:43.935Z,9.27
2023-01-23T01:39:10.705Z,7.88
2023-01-23T01:41:37.920Z,9.07
2023-01-23T01:44:04.792Z,9.93
2023-01-23T01:46:33.134Z,8.65
2023-01-23T01:49:02.741Z,8.52
2023-01-23T01:54:12.043Z,8.00
2023-01-23T01:56:53.173Z,8.67
2023-01-23T01:59:23.755Z,7.97
2023-01-23T02:01:57.565Z,9.63
2023-01-23T02:04:24.813Z,7.72
2023-01-23T02:06:53.893Z,7.75
2023-01-23T02:09:25.322Z,7.75
2023-01-23T02:11:52.249Z,8.43
2023-01-23T02:14:20.220Z,9.20
2023-01-23T02:16:51.043Z,8.68
2023-01-23T02:19:36.527Z,9.93
2023-01-23T02:22:12.057Z,7.90
2023-01-23T02:24:52.533Z,8.20
2023-01-23T02:27:19.406Z,8.00
2023-01-23T02:29:48.319Z,10.10
2023-01-23T02:32:15.242Z,8.00
2023-01-23T02:34:42.686Z,9.23
2023-01-23T02:37:10.095Z,8.25
2023-01-23T02:39:37.503Z,8.07
2023-01-23T02:42:06.600Z,8.63
2023-01-23T02:44:33.487Z,7.78
2023-01-23T02:47:08.032Z,8.45
2023-01-23T02:49:35.048Z,8.45
2023-01-23T02:52:01.942Z,7.88
2023-01-23T02:54:28.907Z,7.70
2023-01-23T02:56:57.227Z,8.75
2023-01-23T02:59:43.020Z,7.82
2023-01-23T03:02:10.337Z,10.65
2023-01-23T03:04:37.141Z,8.07
2023-01-23T03:07:04.082Z,8.13
2023-01-23T03:09:30.963Z,9.48
2023-01-23T03:11:57.861Z,8.23
2023-01-23T03:14:25.101Z,8.77
2023-01-23T03:16:53.893Z,7.90
2023-01-23T03:19:23.738Z,9.73
2023-01-23T03:21:51.412Z,8.10
2023-01-23T03:24:19.725Z,7.93
2023-01-23T03:26:48.331Z,8.45
2023-01-23T03:29:44.208Z,8.98
2023-01-23T03:32:12.545Z,8.30
2023-01-23T03:34:41.501Z,8.02
2023-01-23T03:37:09.536Z,8.50
2023-01-23T03:39:54.830Z,8.25
2023-01-23T03:42:22.204Z,8.77
2023-01-23T03:44:49.565Z,8.88
2023-01-23T03:47:16.389Z,8.80
2023-01-23T03:49:43.182Z,9.00
2023-01-23T03:52:10.086Z,8.98
2023-01-23T03:54:37.136Z,7.97
2023-01-23T03:57:04.132Z,8.57
2023-01-23T03:59:30.996Z,9.13
2023-01-23T04:01:58.223Z,8.93
2023-01-23T04:04:25.060Z,8.88
2023-01-23T04:06:52.118Z,8.68
2023-01-23T04:09:18.913Z,8.73
2023-01-23T04:11:45.735Z,8.98
2023-01-23T04:14:12.572Z,9.80
2023-01-23T04:16:39.458Z,9.25
2023-01-23T04:19:06.337Z,8.65
2023-01-23T04:21:33.180Z,8.98
2023-01-23T04:24:00.064Z,8.95
2023-01-23T04:26:27.043Z,8.70
2023-01-23T04:28:53.871Z,9.07
2023-01-23T04:31:20.913Z,8.93
2023-01-23T04:33:47.873Z,9.63
2023-01-23T04:36:14.855Z,8.75
2023-01-23T04:38:41.671Z,9.60
2023-01-23T04:41:09.716Z,9.30
2023-01-23T04:43:36.558Z,9.65
2023-01-23T04:46:03.462Z,10.00
2023-01-23T04:48:30.368Z,9.70
2023-01-23T04:50:57.343Z,9.45
2023-01-23T04:53:24.220Z,9.30
2023-01-23T04:55:51.040Z,8.25
2023-01-23T04:58:19.696Z,9.85
2023-01-23T05:00:47.564Z,10.23
2023-01-23T05:03:15.534Z,9.35
2023-01-23T05:05:44.247Z,10.05
2023-01-23T05:08:12.135Z,10.13
2023-01-23T05:10:39.095Z,9.98
2023-01-23T05:13:06.476Z,9.95
2023-01-23T05:15:33.513Z,10.35
2023-01-23T05:18:00.730Z,9.77
2023-01-23T05:20:27.711Z,10.27
2023-01-23T05:22:54.591Z,9.60
2023-01-23T05:25:23.524Z,10.10
2023-01-23T05:27:50.671Z,9.80
2023-01-23T05:30:18.329Z,10.60
2023-01-23T05:32:45.463Z,9.27
2023-01-23T05:35:12.496Z,10.45
2023-01-23T05:37:39.437Z,11.05
2023-01-23T05:40:10.493Z,9.43
2023-01-23T05:42:37.451Z,9.90
2023-01-23T05:45:04.711Z,10.13
2023-01-23T05:47:31.669Z,9.38
2023-01-23T05:49:58.559Z,9.73
2023-01-23T05:52:25.439Z,10.30
2023-01-23T05:54:52.345Z,9.50
2023-01-23T05:57:19.299Z,8.93
2023-01-23T05:59:46.214Z,11.35
2023-01-23T06:02:13.379Z,11.57
2023-01-23T06:04:40.485Z,9.45
2023-01-23T06:07:13.376Z,10.00
2023-01-23T06:09:40.407Z,9.20
2023-01-23T06:12:07.919Z,9.00
2023-01-23T06:14:35.379Z,10.07
2023-01-23T06:17:02.575Z,9.88
2023-01-23T06:19:29.503Z,8.95
2023-01-23T06:21:56.379Z,11.38
2023-01-23T06:24:23.292Z,9.38
2023-01-23T06:26:50.671Z,8.38
2023-01-23T06:29:17.516Z,9.63
2023-01-23T06:31:46.188Z,9.43
2023-01-23T06:34:13.610Z,9.77
2023-01-23T06:36:40.543Z,8.68
2023-01-23T06:39:08.438Z,9.43
2023-01-23T06:41:35.578Z,8.77
2023-01-23T06:44:02.380Z,9.65
2023-01-23T06:46:29.260Z,9.25
2023-01-23T06:48:56.249Z,9.20
2023-01-23T06:51:23.377Z,8.93
2023-01-23T06:53:50.401Z,8.77
2023-01-23T06:56:17.582Z,9.52
2023-01-23T06:58:46.095Z,9.10
2023-01-23T07:01:15.954Z,9.40
2023-01-23T07:03:44.891Z,9.75
2023-01-23T07:06:13.257Z,8.48
2023-01-23T07:08:42.511Z,9.38
2023-01-23T07:11:10.408Z,8.80
2023-01-23T07:13:37.387Z,8.77
2023-01-23T07:16:04.784Z,10.38
2023-01-23T07:18:32.699Z,9.38
2023-01-23T07:21:00.887Z,9.07
2023-01-23T07:23:27.835Z,10.65
2023-01-23T07:26:00.385Z,10.80
2023-01-23T07:28:27.820Z,11.43
2023-01-23T07:30:54.845Z,9.45
2023-01-23T07:33:21.712Z,9.85
2023-01-23T07:35:49.358Z,10.20
2023-01-23T07:38:16.323Z,9.65
2023-01-23T07:40:44.463Z,9.10
2023-01-23T07:43:12.286Z,9.40
2023-01-23T07:45:39.461Z,8.85
2023-01-23T07:48:06.363Z,9.75
2023-01-23T07:50:33.962Z,11.40
2023-01-23T07:53:00.771Z,10.27
2023-01-23T07:55:27.739Z,11.00
2023-01-23T07:57:55.568Z,9.48
2023-01-23T08:00:24.920Z,9.95
2023-01-23T08:02:52.486Z,10.60
2023-01-23T08:05:19.382Z,9.27
2023-01-23T08:07:46.512Z,10.63
2023-01-23T08:10:13.605Z,9.00
2023-01-23T08:12:40.574Z,10.25
2023-01-23T08:15:08.083Z,10.45
2023-01-23T08:17:34.895Z,9.40
2023-01-23T08:20:01.784Z,9.50
2023-01-23T08:22:28.599Z,9.68
2023-01-23T08:24:55.518Z,9.02
2023-01-23T08:27:22.432Z,9.30
2023-01-23T08:29:49.286Z,9.77
2023-01-23T08:32:16.248Z,9.20
2023-01-23T08:34:43.057Z,10.27
2023-01-23T08:37:09.924Z,8.85
2023-01-23T08:39:36.757Z,10.25
2023-01-23T08:42:03.725Z,9.05
2023-01-23T08:44:32.736Z,9.60
2023-01-23T08:47:00.899Z,9.15
2023-01-23T08:49:27.774Z,9.27
2023-01-23T08:51:54.726Z,10.65
2023-01-23T08:54:21.538Z,8.65
2023-01-23T08:56:48.421Z,9.85
2023-01-23T08:59:15.383Z,9.15
2023-01-23T09:01:42.250Z,9.55
2023-01-23T09:04:09.149Z,11.30
2023-01-23T09:06:36.512Z,9.48
2023-01-23T09:09:03.383Z,8.82
2023-01-23T09:11:30.362Z,9.70
2023-01-23T09:13:58.325Z,8.50
2023-01-23T09:16:25.156Z,8.93
2023-01-23T09:18:52.027Z,9.30
2023-01-23T09:21:19.288Z,9.40
2023-01-23T09:23:46.300Z,8.50
2023-01-23T09:26:14.220Z,8.38
2023-01-23T09:28:42.836Z,8.68
2023-01-23T09:31:13.340Z,9.63
2023-01-23T09:33:41.082Z,9.40
2023-01-23T09:36:09.100Z,9.40
2023-01-23T09:38:36.401Z,8.73
2023-01-23T09:41:19.220Z,9.25
2023-01-23T09:44:11.170Z,8.73
2023-01-23T09:46:50.364Z,9.23
2023-01-23T09:49:37.316Z,8.82
2023-01-23T09:52:11.263Z,8.27
2023-01-23T09:54:49.958Z,8.73
2023-01-23T09:57:33.412Z,8.55
2023-01-23T10:00:04.868Z,8.80
2023-01-23T10:02:31.870Z,8.32
2023-01-23T10:05:02.532Z,9.65
2023-01-23T10:07:44.339Z,9.02
2023-01-23T10:10:44.735Z,10.77
2023-01-23T10:13:35.152Z,9.20
2023-01-23T10:16:23.728Z,9.05
2023-01-23T10:19:09.207Z,8.20
2023-01-23T10:21:56.920Z,8.15
2023-01-23T10:24:45.373Z,8.70
2023-01-23T10:27:21.613Z,8.27
2023-01-23T10:29:56.363Z,8.70
2023-01-23T10:32:27.576Z,8.52
2023-01-23T10:35:12.812Z,9.40
2023-01-23T10:37:54.118Z,8.13
2023-01-23T10:40:43.568Z,8.10
2023-01-23T10:43:15.129Z,10.30
2023-01-23T10:45:43.173Z,8.20
2023-01-23T10:48:30.397Z,12.02
2023-01-23T10:50:57.443Z,14.48
2023-01-23T10:53:25.907Z,11.30
2023-01-23T10:55:59.641Z,10.05
2023-01-23T10:58:38.259Z,12.30
2023-01-23T11:01:07.408Z,12.27
2023-01-23T11:03:35.915Z,12.95
2023-01-23T11:06:05.950Z,11.68
2023-01-23T11:08:38.975Z,10.25
2023-01-23T11:11:32.954Z,10.75
2023-01-23T11:14:12.040Z,11.10
2023-01-23T11:16:39.362Z,9.88
2023-01-23T11:19:09.084Z,10.13
2023-01-23T11:21:51.103Z,10.55
2023-01-23T11:24:40.161Z,9.05
2023-01-23T11:27:28.109Z,9.57
2023-01-23T11:30:13.434Z,9.77
2023-01-23T11:33:04.284Z,10.02
2023-01-23T11:36:00.280Z,9.60
2023-01-23T11:38:34.463Z,9.95
2023-01-23T11:41:03.046Z,11.25
2023-01-23T11:43:29.951Z,9.80
2023-01-23T11:46:18.917Z,11.38
2023-01-23T11:49:06.161Z,11.15
2023-01-23T11:51:38.091Z,11.13
2023-01-23T11:54:49.231Z,10.65
2023-01-23T11:57:31.394Z,10.95
2023-01-23T12:00:22.043Z,10.75
2023-01-23T12:02:55.394Z,10.43
2023-01-23T12:05:46.824Z,11.30
2023-01-23T12:08:32.829Z,10.05
2023-01-23T12:11:16.697Z,11.95
2023-01-23T12:14:15.468Z,11.68
2023-01-23T12:17:08.832Z,10.38
2023-01-23T12:20:03.064Z,10.55
2023-01-23T12:22:35.336Z,9.63
2023-01-23T12:25:43.880Z,10.02
2023-01-23T12:28:38.222Z,10.15
2023-01-23T12:31:20.278Z,9.85
2023-01-23T12:33:49.922Z,10.35
2023-01-23T12:39:40.692Z,10.15
2023-01-23T12:42:17.909Z,9.98
2023-01-23T12:45:00.595Z,10.55
2023-01-23T12:47:35.073Z,10.32
2023-01-23T12:50:23.006Z,10.65
2023-01-23T12:52:59.658Z,10.63
2023-01-23T12:55:33.315Z,11.07
2023-01-23T12:58:08.913Z,10.88
2023-01-23T13:00:45.308Z,11.07
2023-01-23T13:03:49.695Z,10.23
2023-01-23T13:06:54.134Z,10.80
2023-01-23T13:09:32.540Z,9.38
2023-01-23T13:12:22.072Z,10.82
2023-01-23T13:15:10.508Z,9.82
2023-01-23T13:17:50.823Z,8.93
2023-01-23T13:20:54.779Z,9.80
2023-01-23T13:23:24.517Z,9.13
2023-01-23T13:26:22.858Z,10.50
2023-01-23T13:28:57.903Z,8.90
2023-01-23T13:31:40.276Z,10.05
2023-01-23T13:34:16.403Z,10.02
2023-01-23T13:36:51.607Z,10.15
2023-01-23T13:39:18.376Z,10.27
2023-01-23T13:41:50.480Z,10.35
2023-01-23T13:44:40.952Z,10.45
2023-01-23T14:22:11.454Z,9.57
2023-01-23T14:24:47.276Z,11.20
2023-01-23T14:27:51.368Z,10.02
2023-01-23T14:30:24.881Z,11.38
2023-01-23T14:32:51.986Z,11.23
2023-01-23T14:35:29.972Z,10.95
2023-01-23T14:38:02.835Z,11.02
2023-01-23T14:40:37.269Z,12.35
2023-01-23T14:43:24.561Z,11.50
2023-01-23T14:46:02.579Z,11.93
2023-01-23T14:48:31.773Z,10.18
2023-01-23T14:51:25.612Z,11.75
2023-01-23T14:53:55.657Z,11.40
2023-01-23T14:56:28.268Z,12.57
2023-01-23T14:58:58.532Z,11.10
2023-01-23T15:01:27.192Z,10.52
2023-01-23T15:04:07.138Z,10.60
2023-01-23T15:06:35.360Z,13.15
2023-01-23T15:09:09.093Z,10.93
2023-01-23T15:11:36.125Z,11.23
2023-01-23T15:14:03.156Z,11.25
2023-01-23T15:16:34.201Z,10.93
2023-01-23T15:19:01.124Z,12.45
2023-01-23T15:21:29.457Z,12.05
2023-01-23T15:24:25.245Z,11.10
2023-01-23T15:26:58.480Z,10.70
2023-01-23T15:29:27.056Z,11.73
2023-01-23T15:31:55.548Z,11.10
2023-01-23T15:34:28.672Z,11.27
2023-01-23T15:36:57.627Z,11.52
2023-01-23T15:39:49.233Z,13.98
2023-01-23T15:42:16.025Z,13.15
2023-01-23T15:44:43.563Z,10.95
2023-01-23T15:47:10.740Z,13.65
2023-01-23T15:49:39.297Z,11.75
2023-01-23T15:52:18.140Z,11.55
2023-01-23T15:54:45.494Z,12.50
2023-01-23T15:57:13.280Z,12.38
2023-01-23T15:59:40.385Z,14.13
2023-01-23T16:02:28.544Z,12.15
2023-01-23T16:04:56.800Z,14.55
2023-01-23T16:07:44.782Z,11.50
2023-01-23T16:10:28.096Z,14.30
2023-01-23T16:12:57.565Z,11.88
2023-01-23T16:15:35.965Z,11.48
2023-01-23T16:18:04.698Z,12.43
2023-01-23T16:20:41.470Z,11.45
2023-01-23T16:23:18.212Z,12.38
2023-01-23T16:25:46.264Z,11.77
2023-01-23T16:28:22.352Z,13.85
2023-01-23T16:30:50.763Z,12.20
2023-01-23T16:33:18.366Z,12.07
2023-01-23T16:35:46.429Z,11.82
2023-01-23T16:38:28.963Z,11.57
2023-01-23T16:40:59.471Z,11.95
2023-01-23T16:43:27.159Z,11.05
2023-01-23T16:45:56.221Z,11.48
2023-01-23T16:48:28.224Z,12.75
2023-01-23T16:51:19.590Z,12.25
2023-01-23T16:53:53.111Z,11.57
2023-01-23T16:56:28.677Z,13.02
2023-01-23T16:58:56.102Z,12.77
2023-01-23T17:01:24.050Z,12.68
2023-01-23T17:04:00.710Z,12.77
2023-01-23T17:06:27.556Z,15.25
2023-01-23T17:08:56.301Z,13.02
2023-01-23T17:11:28.299Z,14.75
2023-01-23T17:14:04.227Z,14.50
2023-01-23T17:16:31.151Z,12.50
2023-01-23T17:19:06.950Z,14.43
2023-01-23T17:21:34.776Z,12.40
2023-01-23T17:24:01.806Z,12.18
2023-01-23T17:26:28.737Z,13.60
2023-01-23T17:28:55.884Z,12.30
2023-01-23T17:31:26.194Z,13.98
2023-01-23T17:33:53.727Z,12.90
2023-01-23T17:36:20.547Z,12.25
2023-01-23T17:38:47.601Z,15.07
2023-01-23T17:41:15.417Z,12.30
2023-01-23T17:43:44.489Z,13.75
2023-01-23T17:46:39.363Z,14.45
2023-01-23T17:49:27.358Z,13.50
2023-01-23T17:51:54.950Z,13.18
2023-01-23T17:54:22.197Z,12.43
2023-01-23T17:56:49.124Z,12.70
2023-01-23T17:59:16.023Z,12.35
2023-01-23T18:01:43.032Z,12.88
2023-01-23T18:04:21.224Z,13.15
2023-01-23T18:06:51.366Z,13.15
2023-01-23T18:09:21.313Z,12.20
2023-01-23T18:11:52.440Z,15.82
2023-01-23T18:14:41.665Z,12.95
2023-01-23T18:17:47.576Z,13.27
2023-01-23T18:20:23.048Z,13.07
2023-01-23T18:22:50.386Z,13.10
2023-01-23T18:25:19.385Z,13.05
2023-01-23T18:27:50.246Z,12.15
2023-01-23T18:30:53.748Z,13.15
2023-01-23T18:33:51.196Z,12.38
2023-01-23T18:36:50.044Z,13.75
2023-01-23T18:39:36.401Z,13.25
2023-01-23T18:42:28.065Z,14.73
2023-01-23T18:45:01.727Z,12.95
2023-01-23T18:47:28.702Z,12.88
2023-01-23T18:49:55.837Z,11.82
2023-01-23T18:52:41.580Z,12.93
2023-01-23T18:55:15.242Z,13.07
2023-01-23T18:58:00.640Z,12.60
2023-01-23T19:00:45.626Z,12.90
2023-01-23T19:03:14.559Z,13.00
2023-01-23T19:05:42.433Z,12.75
2023-01-23T19:08:32.810Z,13.85
2023-01-23T19:11:05.719Z,12.60
2023-01-23T19:13:43.588Z,15.70
2023-01-23T19:16:32.178Z,13.45
2023-01-23T19:19:25.658Z,12.80
2023-01-23T19:21:52.619Z,12.95
2023-01-23T19:24:20.153Z,14.93
2023-01-23T19:26:47.747Z,12.88
2023-01-23T19:29:22.058Z,12.57
2023-01-23T19:32:06.879Z,14.20
2023-01-23T19:34:34.400Z,13.85
2023-01-23T19:37:01.925Z,13.77
2023-01-23T19:39:28.878Z,14.27
2023-01-23T19:41:58.186Z,13.65
2023-01-23T19:44:25.691Z,13.38
2023-01-23T19:46:52.755Z,13.98
2023-01-23T19:49:20.096Z,14.52
2023-01-23T19:51:47.143Z,13.45
2023-01-23T19:54:15.433Z,15.55
2023-01-23T19:56:42.731Z,14.25
2023-01-23T19:59:10.074Z,13.82
2023-01-23T20:01:49.689Z,15.23
2023-01-23T20:04:20.645Z,13.32
2023-01-23T20:06:49.027Z,14.48
2023-01-23T20:09:16.436Z,14.57
2023-01-23T20:11:44.350Z,15.25
2023-01-23T20:14:11.635Z,15.07
2023-01-23T20:16:40.942Z,15.05
2023-01-23T20:19:08.283Z,15.75
2023-01-23T20:21:35.178Z,14.77
2023-01-23T20:24:02.065Z,13.82
2023-01-23T20:26:28.951Z,15.00
2023-01-23T20:28:56.295Z,14.50
2023-01-23T20:31:23.409Z,14.50
2023-01-23T20:33:50.506Z,14.52
2023-01-23T20:36:17.825Z,13.18
2023-01-23T20:38:44.977Z,15.68
2023-01-23T20:41:14.675Z,14.48
2023-01-23T20:43:45.462Z,15.05
2023-01-23T20:46:14.357Z,14.05
2023-01-23T20:48:46.264Z,14.02
2023-01-23T20:51:15.228Z,15.43
2023-01-23T20:53:43.098Z,14.80
2023-01-23T20:56:15.175Z,14.88
2023-01-23T20:59:03.115Z,16.33
2023-01-23T21:01:54.163Z,15.88
2023-01-23T21:04:22.512Z,13.57
2023-01-23T21:06:49.354Z,15.45
2023-01-23T21:09:16.572Z,14.95
2023-01-23T21:11:43.742Z,14.77
2023-01-23T21:14:10.612Z,16.13
2023-01-23T21:16:37.558Z,15.43
2023-01-23T21:19:04.786Z,13.88
2023-01-23T21:21:31.730Z,15.57
2023-01-23T21:23:58.688Z,14.80
2023-01-23T21:26:27.404Z,14.60
2023-01-23T21:28:56.234Z,14.27
2023-01-23T21:31:29.479Z,14.90
2023-01-23T21:34:00.101Z,15.90
2023-01-23T21:36:27.186Z,15.90
2023-01-23T21:38:54.701Z,15.68
2023-01-23T21:41:22.465Z,15.93
2023-01-23T21:43:49.485Z,16.15
2023-01-23T21:46:17.132Z,14.93
2023-01-23T21:48:44.005Z,15.05
2023-01-23T21:51:16.015Z,17.05
2023-01-23T21:53:45.160Z,15.57
2023-01-23T21:56:14.189Z,17.02
2023-01-23T21:58:42.382Z,17.33
2023-01-23T22:01:35.928Z,16.10
2023-01-23T22:04:05.104Z,14.63
2023-01-23T22:06:32.904Z,15.27
2023-01-23T22:09:00.238Z,16.20
2023-01-23T22:11:27.324Z,16.48
2023-01-23T22:13:54.296Z,15.13
2023-01-23T22:16:31.914Z,19.50
2023-01-23T22:19:02.996Z,15.07
2023-01-23T22:21:29.789Z,15.85
2023-01-23T22:23:56.782Z,14.52
2023-01-23T22:26:23.941Z,17.00
2023-01-23T22:28:50.918Z,14.95
2023-01-23T22:31:18.714Z,16.10
2023-01-23T22:33:47.888Z,14.70
2023-01-23T22:36:18.201Z,15.50
2023-01-23T22:38:50.068Z,15.70
2023-01-23T22:41:16.945Z,15.73
2023-01-23T22:43:43.751Z,18.67
2023-01-23T22:46:13.547Z,16.70
2023-01-23T22:48:40.550Z,16.65
2023-01-23T22:51:15.686Z,14.52
2023-01-23T22:53:42.802Z,14.95
2023-01-23T22:56:10.238Z,16.35
2023-01-23T22:58:37.744Z,15.30
2023-01-23T23:01:04.947Z,17.02
2023-01-23T23:03:33.659Z,14.95
2023-01-23T23:06:04.145Z,15.93
2023-01-23T23:08:31.492Z,15.63
2023-01-23T23:11:25.889Z,16.23
2023-01-23T23:13:53.624Z,16.42
2023-01-23T23:16:26.526Z,18.13
2023-01-23T23:18:55.066Z,17.63
2023-01-23T23:21:25.191Z,17.15
2023-01-23T23:23:54.908Z,17.35
2023-01-23T23:26:21.715Z,17.25
2023-01-23T23:28:48.538Z,17.13
2023-01-23T23:31:15.462Z,16.42
2023-01-23T23:33:42.346Z,17.70
2023-01-23T23:36:09.323Z,17.38
2023-01-23T23:38:36.227Z,16.60
2023-01-23T23:41:08.978Z,18.45
2023-01-23T23:43:35.837Z,16.92
2023-01-23T23:46:04.966Z,16.55
2023-01-23T23:48:33.057Z,16.10
2023-01-23T23:51:00.785Z,15.13
2023-01-23T23:53:28.340Z,16.55
2023-01-23T23:55:55.614Z,16.30
2023-01-23T23:58:23.929Z,15.65
